createdAt,value
2023-03-11T00:03:51.712Z,4.78
2023-03-11T00:07:56.781Z,5.65
2023-03-11T00:11:59.030Z,4.50
2023-03-11T00:16:01.658Z,4.63
2023-03-11T00:20:07.394Z,5.47
2023-03-11T00:24:09.951Z,4.93
2023-03-11T00:28:14.869Z,4.80
2023-03-11T00:32:17.673Z,6.88
2023-03-11T00:36:38.042Z,5.07
2023-03-11T00:40:40.444Z,4.00
2023-03-11T00:44:43.154Z,4.75
2023-03-11T00:48:45.551Z,4.28
2023-03-11T00:52:49.403Z,4.88
2023-03-11T00:56:52.211Z,4.72
2023-03-11T01:00:54.461Z,4.25
2023-03-11T01:04:57.289Z,3.53
2023-03-11T01:08:59.637Z,3.80
2023-03-11T01:13:02.591Z,4.07
2023-03-11T01:17:05.006Z,4.10
2023-03-11T01:21:07.312Z,4.68
2023-03-11T01:25:13.951Z,3.70
2023-03-11T01:29:16.225Z,4.10
2023-03-11T01:33:19.978Z,3.65
2023-03-11T01:37:22.302Z,5.10
2023-03-11T01:41:24.594Z,5.03
2023-03-11T01:45:50.044Z,4.03
2023-03-11T01:49:55.083Z,4.40
2023-03-11T01:54:01.546Z,4.20
2023-03-11T01:58:08.364Z,4.20
2023-03-11T02:02:21.186Z,4.05
2023-03-11T02:06:27.983Z,5.97
2023-03-11T02:10:31.843Z,4.20
2023-03-11T02:14:36.053Z,4.03
2023-03-11T02:18:38.445Z,4.50
2023-03-11T02:22:42.647Z,5.05
2023-03-11T02:27:08.135Z,4.82
2023-03-11T02:31:11.154Z,4.43
2023-03-11T02:35:13.546Z,3.75
2023-03-11T02:39:16.042Z,3.97
2023-03-11T02:43:29.548Z,4.68
2023-03-11T02:47:33.869Z,3.58
2023-03-11T02:51:36.135Z,4.25
2023-03-11T02:55:38.694Z,3.80
2023-03-11T02:59:43.243Z,3.90
2023-03-11T03:03:46.014Z,4.28
2023-03-11T03:07:49.756Z,4.78
2023-03-11T03:11:56.750Z,3.85
2023-03-11T03:16:00.890Z,4.07
2023-03-11T03:20:06.344Z,3.30
2023-03-11T03:24:12.174Z,4.15
2023-03-11T03:28:15.918Z,3.83
2023-03-11T03:32:21.358Z,3.70
2023-03-11T03:36:24.257Z,3.80
2023-03-11T03:40:34.332Z,5.85
2023-03-11T03:44:41.167Z,3.70
2023-03-11T03:48:44.169Z,3.20
2023-03-11T03:52:52.496Z,4.80
2023-03-11T03:56:58.605Z,3.55
2023-03-11T04:01:01.009Z,4.13
2023-03-11T04:05:04.137Z,3.95
2023-03-11T04:09:06.913Z,3.20
2023-03-11T04:13:11.070Z,3.80
2023-03-11T04:17:14.667Z,3.70
2023-03-11T04:25:20.818Z,3.08
2023-03-11T04:29:23.264Z,3.05
2023-03-11T04:33:28.711Z,3.85
2023-03-11T04:37:31.456Z,3.88
2023-03-11T04:41:33.949Z,3.22
2023-03-11T04:45:39.174Z,2.92
2023-03-11T04:49:41.707Z,3.67
2023-03-11T04:53:44.550Z,3.20
2023-03-11T04:57:47.577Z,3.53
2023-03-11T05:01:50.918Z,2.75
2023-03-11T05:05:56.767Z,3.10
2023-03-11T05:09:59.190Z,2.95
2023-03-11T05:14:02.098Z,3.25
2023-03-11T05:18:05.632Z,3.33
2023-03-11T05:22:09.557Z,3.35
2023-03-11T05:26:12.654Z,3.40
2023-03-11T05:30:17.747Z,2.97
2023-03-11T05:34:21.616Z,3.00
2023-03-11T05:38:24.291Z,3.35
2023-03-11T05:42:27.208Z,3.83
2023-03-11T05:46:32.388Z,3.20
2023-03-11T05:50:35.938Z,2.92
2023-03-11T05:54:38.831Z,2.95
2023-03-11T05:58:41.842Z,2.67
2023-03-11T06:02:44.994Z,4.65
2023-03-11T06:06:50.676Z,3.95
2023-03-11T06:11:02.264Z,3.42
2023-03-11T06:20:14.422Z,3.47
2023-03-11T06:24:18.170Z,3.13
2023-03-11T06:28:21.106Z,3.15
2023-03-11T06:32:23.466Z,4.50
2023-03-11T06:36:26.726Z,2.90
2023-03-11T06:40:29.035Z,3.40
2023-03-11T06:44:31.364Z,3.40
2023-03-11T06:48:33.843Z,3.72
2023-03-11T06:52:36.080Z,3.00
2023-03-11T06:56:38.304Z,2.63
2023-03-11T07:00:43.291Z,3.53
2023-03-11T07:04:49.598Z,4.10
2023-03-11T07:08:54.053Z,3.92
2023-03-11T07:12:56.144Z,3.03
2023-03-11T07:16:59.539Z,2.75
2023-03-11T07:21:08.869Z,2.90
2023-03-11T07:25:11.012Z,3.27
2023-03-11T07:29:13.079Z,3.50
2023-03-11T07:33:15.803Z,3.60
2023-03-11T07:37:17.884Z,3.33
2023-03-11T07:41:20.468Z,3.47
2023-03-11T07:45:24.114Z,3.30
2023-03-11T07:49:26.312Z,3.33
2023-03-11T07:53:28.723Z,2.92
2023-03-11T07:57:31.634Z,3.38
2023-03-11T08:01:40.783Z,3.97
2023-03-11T08:05:44.123Z,3.85
2023-03-11T08:09:46.716Z,3.92
2023-03-11T08:13:53.263Z,3.92
2023-03-11T08:17:55.785Z,4.18
2023-03-11T08:21:57.974Z,3.15
2023-03-11T08:26:04.295Z,3.20
2023-03-11T08:30:07.739Z,3.38
2023-03-11T08:34:11.029Z,3.90
2023-03-11T08:38:13.523Z,3.67
2023-03-11T08:42:17.601Z,3.38
2023-03-11T08:46:28.966Z,3.72
2023-03-11T08:50:34.933Z,3.17
2023-03-11T08:54:43.224Z,3.30
2023-03-11T08:58:46.719Z,3.10
2023-03-11T09:02:49.918Z,3.50
2023-03-11T09:06:52.252Z,3.47
2023-03-11T09:10:54.916Z,2.95
2023-03-11T09:14:57.234Z,3.15
2023-03-11T09:19:15.706Z,2.92
2023-03-11T09:23:21.452Z,3.47
2023-03-11T09:28:16.958Z,3.25
2023-03-11T09:32:19.079Z,3.97
2023-03-11T09:36:21.844Z,3.42
2023-03-11T09:40:26.398Z,4.20
2023-03-11T09:49:26.354Z,3.47
2023-03-11T09:53:46.305Z,4.03
2023-03-11T09:58:19.513Z,7.47
2023-03-11T10:02:27.921Z,3.60
2023-03-11T10:06:30.829Z,3.63
2023-03-11T10:10:44.074Z,3.42
2023-03-11T10:15:05.962Z,3.58
2023-03-11T10:19:59.453Z,4.00
2023-03-11T10:24:30.865Z,4.13
2023-03-11T10:28:37.201Z,4.22
2023-03-11T10:33:13.695Z,4.40
2023-03-11T10:37:48.458Z,3.83
2023-03-11T10:42:02.034Z,3.17
2023-03-11T10:46:09.476Z,4.00
2023-03-11T10:50:17.870Z,3.58
2023-03-11T10:54:27.507Z,3.38
2023-03-11T10:58:31.069Z,3.58
2023-03-11T11:02:49.756Z,3.38
2023-03-11T11:06:52.341Z,3.67
2023-03-11T11:10:57.663Z,3.05
2023-03-11T11:14:59.802Z,3.33
2023-03-11T11:19:12.027Z,3.65
2023-03-11T11:23:27.708Z,3.35
2023-03-11T11:27:33.256Z,3.42
2023-03-11T11:31:38.970Z,4.18
2023-03-11T11:35:52.281Z,4.35
2023-03-11T11:39:58.671Z,9.32
2023-03-11T11:44:39.279Z,4.53
2023-03-11T11:48:48.777Z,3.70
2023-03-11T11:53:02.223Z,3.58
2023-03-11T11:57:19.761Z,4.20
2023-03-11T12:01:45.203Z,4.25
2023-03-11T12:06:06.323Z,4.35
2023-03-11T12:10:59.775Z,3.65
2023-03-11T12:15:14.406Z,4.93
2023-03-11T12:19:20.011Z,5.78
2023-03-11T12:23:55.133Z,4.93
2023-03-11T12:28:45.271Z,3.78
2023-03-11T12:33:02.493Z,4.22
2023-03-11T12:37:15.000Z,4.07
2023-03-11T12:41:29.669Z,4.57
2023-03-11T12:45:53.690Z,4.03
2023-03-11T12:50:16.688Z,4.32
2023-03-11T12:54:32.993Z,4.17
2023-03-11T12:58:38.187Z,3.83
2023-03-11T13:02:49.584Z,3.92
2023-03-11T13:07:26.341Z,3.33
2023-03-11T13:11:31.741Z,8.55
2023-03-11T13:15:37.919Z,8.35
2023-03-11T13:19:49.643Z,7.78
2023-03-11T13:23:52.175Z,4.85
2023-03-11T13:28:08.279Z,4.55
2023-03-11T13:32:53.043Z,4.88
2023-03-11T13:37:07.173Z,5.07
2023-03-11T13:41:22.504Z,5.00
2023-03-11T13:45:29.300Z,5.18
2023-03-11T13:49:43.923Z,4.50
2023-03-11T13:54:00.944Z,5.53
2023-03-11T13:58:15.629Z,5.15
2023-03-11T14:02:20.206Z,4.70
2023-03-11T14:06:23.145Z,4.20
2023-03-11T14:10:25.371Z,4.80
2023-03-11T14:14:30.899Z,4.40
2023-03-11T14:18:36.985Z,6.50
2023-03-11T14:22:40.079Z,4.65
2023-03-11T14:26:44.426Z,6.18
2023-03-11T14:31:02.191Z,5.80
2023-03-11T14:35:21.451Z,5.95
2023-03-11T14:39:31.616Z,4.68
2023-03-11T14:43:40.596Z,4.90
2023-03-11T14:47:46.267Z,4.95
2023-03-11T14:51:57.109Z,4.50
2023-03-11T14:56:08.028Z,3.75
2023-03-11T15:00:22.014Z,3.55
2023-03-11T15:04:34.613Z,3.55
2023-03-11T15:09:00.125Z,4.20
2023-03-11T15:13:16.121Z,4.45
2023-03-11T15:17:34.251Z,4.20
2023-03-11T15:21:37.906Z,4.85
2023-03-11T15:25:40.904Z,12.10
2023-03-11T15:29:52.554Z,8.95
2023-03-11T15:33:56.829Z,9.02
2023-03-11T15:42:33.555Z,4.25
2023-03-11T15:46:35.995Z,4.45
2023-03-11T15:50:53.239Z,3.72
2023-03-11T15:54:56.285Z,3.63
2023-03-11T15:58:59.899Z,5.10
2023-03-11T16:03:04.776Z,4.45
2023-03-11T16:07:08.747Z,5.43
2023-03-11T16:11:13.878Z,5.55
2023-03-11T16:15:29.205Z,5.45
2023-03-11T16:19:33.118Z,5.53
2023-03-11T16:23:50.656Z,5.55
2023-03-11T16:27:55.872Z,4.78
2023-03-11T16:31:58.145Z,5.18
2023-03-11T16:36:00.548Z,4.68
2023-03-11T16:40:04.899Z,4.35
2023-03-11T16:48:13.652Z,4.43
2023-03-11T16:52:20.325Z,4.72
2023-03-11T16:56:23.055Z,4.97
2023-03-11T17:00:26.402Z,4.72
2023-03-11T17:04:29.720Z,5.20
2023-03-11T17:08:32.600Z,4.50
2023-03-11T17:12:36.264Z,5.13
2023-03-11T17:16:39.728Z,5.15
2023-03-11T17:20:43.748Z,10.17
2023-03-11T17:24:48.529Z,11.30
2023-03-11T17:28:51.102Z,10.63
2023-03-11T17:32:54.710Z,7.82
2023-03-11T17:36:59.085Z,6.90
2023-03-11T17:41:07.732Z,7.53
2023-03-11T17:45:10.828Z,7.05
2023-03-11T17:49:15.074Z,6.10
2023-03-11T17:53:17.628Z,6.43
2023-03-11T17:57:20.436Z,6.60
2023-03-11T18:01:25.305Z,7.47
2023-03-11T18:05:28.040Z,7.97
2023-03-11T18:09:31.387Z,6.70
2023-03-11T18:13:34.738Z,9.13
2023-03-11T18:17:37.199Z,17.75
2023-03-11T18:21:39.338Z,11.23
2023-03-11T18:25:41.602Z,12.23
2023-03-11T18:29:44.227Z,11.07
2023-03-11T18:33:52.854Z,9.88
2023-03-11T18:37:55.136Z,9.48
2023-03-11T18:41:57.470Z,11.30
2023-03-11T18:46:01.457Z,8.75
2023-03-11T18:50:04.659Z,10.18
2023-03-11T18:54:09.948Z,11.38
2023-03-11T18:58:12.197Z,11.27
2023-03-11T19:02:14.460Z,10.15
2023-03-11T19:06:16.954Z,7.88
2023-03-11T19:10:20.199Z,9.35
2023-03-11T19:14:22.396Z,9.82
2023-03-11T19:18:25.409Z,13.05
2023-03-11T19:22:27.681Z,16.73
2023-03-11T19:26:43.849Z,12.05
2023-03-11T19:30:51.802Z,12.10
2023-03-11T19:40:31.833Z,11.88
2023-03-11T19:44:36.510Z,12.18
2023-03-11T19:48:40.093Z,13.90
2023-03-11T19:52:42.333Z,12.63
2023-03-11T19:56:45.245Z,11.55
2023-03-11T20:00:48.328Z,14.15
2023-03-11T20:04:50.531Z,14.18
2023-03-11T20:08:52.764Z,12.27
2023-03-11T20:13:02.243Z,14.52
2023-03-11T20:17:04.843Z,12.10
2023-03-11T20:21:08.998Z,11.75
2023-03-11T20:25:11.249Z,11.82
2023-03-11T20:29:13.706Z,11.25
2023-03-11T20:33:15.956Z,10.88
2023-03-11T20:37:18.548Z,10.60
2023-03-11T20:41:23.393Z,11.57
2023-03-11T20:45:25.720Z,12.50
2023-03-11T20:49:28.796Z,18.33
2023-03-11T20:53:31.745Z,18.55
2023-03-11T20:57:34.900Z,21.90
2023-03-11T21:01:37.596Z,15.48
2023-03-11T21:05:40.140Z,17.10
2023-03-11T21:09:42.676Z,16.65
2023-03-11T21:13:45.075Z,16.40
2023-03-11T21:17:47.316Z,18.90
2023-03-11T21:21:49.526Z,16.52
2023-03-11T21:25:59.709Z,21.17
2023-03-11T21:30:03.920Z,12.88
2023-03-11T21:34:06.284Z,14.13
2023-03-11T21:38:08.889Z,17.23
2023-03-11T21:42:11.440Z,13.80
2023-03-11T21:46:16.405Z,13.15
2023-03-11T21:50:19.178Z,15.25
2023-03-11T21:54:21.498Z,15.55
2023-03-11T21:58:23.761Z,13.63
2023-03-11T22:02:26.086Z,16.38
2023-03-11T22:06:28.412Z,13.43
2023-03-11T22:10:31.689Z,11.43
2023-03-11T22:14:33.858Z,10.15
2023-03-11T22:18:36.371Z,9.45
2023-03-11T22:22:38.653Z,9.60
2023-03-11T22:26:40.725Z,9.73
2023-03-11T22:30:42.813Z,20.77
2023-03-11T22:34:45.032Z,15.57
2023-03-11T22:38:47.466Z,13.88
2023-03-11T22:42:49.618Z,13.40
2023-03-11T22:46:51.870Z,13.77
2023-03-11T22:50:54.216Z,27.60
2023-03-11T22:54:56.436Z,23.52
2023-03-11T22:58:58.636Z,19.08
2023-03-11T23:03:00.791Z,14.73
2023-03-11T23:07:03.072Z,12.50
2023-03-11T23:11:08.154Z,12.57
2023-03-11T23:15:13.784Z,12.95
2023-03-11T23:19:16.034Z,13.45
2023-03-11T23:23:18.212Z,14.98
2023-03-11T23:27:20.433Z,13.65
2023-03-11T23:31:25.204Z,13.75
2023-03-11T23:35:27.631Z,12.30
2023-03-11T23:39:29.919Z,12.23
2023-03-11T23:43:32.014Z,13.63
2023-03-11T23:47:34.137Z,14.40
2023-03-11T23:51:36.609Z,22.95
2023-03-11T23:55:38.913Z,25.63
2023-03-11T23:59:41.257Z,23.90
